Time;durP1;ratioP1;P1;durP2;ratioP2;P2;SDS_P1;SDS_P2;PMS_P1;PMS_P2;Temp;Humidity;BMP_temperature;BMP_pressure;BME280_temperature;BME280_humidity;BME280_pressure;Samples;Min_cycle;Max_cycle;Signal;HPM_P1;HPM_P2
2021/03/22 00:00:22;;;;;;;5.00;1.63;;;;;;;;;;5050296;28;20063;-58
2021/03/22 00:02:49;;;;;;;5.85;1.73;;;;;;;;;;5048641;28;20072;-58
2021/03/22 00:05:17;;;;;;;6.65;1.45;;;;;;;;;;5048988;28;20040;-56
2021/03/22 00:07:43;;;;;;;7.90;1.98;;;;;;;;;;5050149;28;20057;-58
2021/03/22 00:10:10;;;;;;;5.55;1.60;;;;;;;;;;5049545;28;20385;-58
2021/03/22 00:12:36;;;;;;;5.38;1.58;;;;;;;;;;5049120;28;20056;-57
2021/03/22 00:15:03;;;;;;;;;;;;;;;;;;5049480;28;20045;-57
2021/03/22 00:17:30;;;;;;;6.20;1.50;;;;;;;;;;5049374;28;19927;-58
2021/03/22 00:19:56;;;;;;;6.70;1.60;;;;;;;;;;5048315;28;20049;-58
2021/03/22 00:22:22;;;;;;;5.20;1.35;;;;;;;;;;5046627;28;20116;-58
2021/03/22 00:24:49;;;;;;;3.83;1.40;;;;;;;;;;5048643;28;20039;-57
2021/03/22 00:27:16;;;;;;;9.73;1.73;;;;;;;;;;5046860;28;20127;-58
2021/03/22 00:29:42;;;;;;;5.18;1.70;;;;;;;;;;5045661;28;20052;-58
2021/03/22 00:32:08;;;;;;;5.03;1.60;;;;;;;;;;5048050;28;20502;-57
2021/03/22 00:34:35;;;;;;;5.28;1.55;;;;;;;;;;5047967;28;20493;-58
2021/03/22 00:37:01;;;;;;;8.52;1.83;;;;;;;;;;5049213;28;20041;-56
2021/03/22 00:39:27;;;;;;;6.07;1.83;;;;;;;;;;5050188;28;20110;-58
2021/03/22 00:41:53;;;;;;;3.28;1.25;;;;;;;;;;5047874;28;20155;-57
2021/03/22 00:44:20;;;;;;;2.55;1.38;;;;;;;;;;5046253;28;20050;-57
2021/03/22 00:46:46;;;;;;;5.20;1.90;;;;;;;;;;5049159;28;20040;-56
2021/03/22 00:49:13;;;;;;;2.35;1.27;;;;;;;;;;5048950;28;20055;-58
2021/03/22 00:51:40;;;;;;;4.75;1.38;;;;;;;;;;5048793;28;20120;-55
2021/03/22 00:54:06;;;;;;;5.38;1.77;;;;;;;;;;5047595;28;20041;-58
2021/03/22 00:56:33;;;;;;;4.53;1.50;;;;;;;;;;5049813;28;20048;-58
2021/03/22 00:58:59;;;;;;;6.40;1.50;;;;;;;;;;5045808;28;20083;-57
2021/03/22 01:01:25;;;;;;;14.10;2.15;;;;;;;;;;5046318;28;20152;-58
2021/03/22 01:03:52;;;;;;;4.35;1.60;;;;;;;;;;5046064;28;20052;-57
2021/03/22 01:06:18;;;;;;;8.07;1.98;;;;;;;;;;5048222;28;20094;-58
2021/03/22 01:08:45;;;;;;;6.05;1.83;;;;;;;;;;5049545;28;20045;-58
2021/03/22 01:11:13;;;;;;;4.80;1.23;;;;;;;;;;5048353;28;20037;-56
2021/03/22 01:13:43;;;;;;;5.93;1.80;;;;;;;;;;5049563;28;20382;-57
2021/03/22 01:16:18;;;;;;;5.63;1.65;;;;;;;;;;5046831;28;20115;-58
2021/03/22 01:18:46;;;;;;;3.72;1.50;;;;;;;;;;5063793;28;20053;-57
2021/03/22 01:21:12;;;;;;;;;;;;;;;;;;5047035;28;20119;-58
2021/03/22 01:23:39;;;;;;;5.10;1.75;;;;;;;;;;5044723;28;19982;-57
2021/03/22 01:26:06;;;;;;;4.35;1.80;;;;;;;;;;5047360;28;20053;-58
2021/03/22 01:28:32;;;;;;;;;;;;;;;;;;5049874;28;20080;-58
2021/03/22 01:31:00;;;;;;;6.97;1.58;;;;;;;;;;5049151;28;19978;-57
2021/03/22 01:33:30;;;;;;;8.43;1.70;;;;;;;;;;5048226;28;20037;-58
2021/03/22 01:35:57;;;;;;;4.53;1.42;;;;;;;;;;5030269;28;20069;-58
2021/03/22 01:38:24;;;;;;;5.38;1.80;;;;;;;;;;5049233;28;20056;-56
2021/03/22 01:40:56;;;;;;;6.43;1.88;;;;;;;;;;5047180;28;20056;-57
2021/03/22 01:43:40;;;;;;;5.55;1.98;;;;;;;;;;5047592;28;20049;-58
2021/03/22 01:46:07;;;;;;;6.82;1.80;;;;;;;;;;5047952;28;20532;-58
2021/03/22 01:48:33;;;;;;;8.27;1.83;;;;;;;;;;5047464;28;20036;-58
2021/03/22 01:51:00;;;;;;;9.25;2.05;;;;;;;;;;5047749;28;20041;-55
2021/03/22 01:53:26;;;;;;;5.38;1.98;;;;;;;;;;5047994;28;20037;-55
2021/03/22 01:56:32;;;;;;;4.30;1.75;;;;;;;;;;5048237;28;20041;-58
2021/03/22 01:58:58;;;;;;;6.38;2.17;;;;;;;;;;4979384;28;20057;-58
2021/03/22 02:01:27;;;;;;;8.30;2.83;;;;;;;;;;4978926;28;20047;-57
2021/03/22 02:03:54;;;;;;;9.18;2.00;;;;;;;;;;5010961;28;20049;-58
2021/03/22 02:06:21;;;;;;;4.80;1.50;;;;;;;;;;5046143;28;20143;-58
2021/03/22 02:08:48;;;;;;;4.10;1.65;;;;;;;;;;5048543;28;20576;-58
2021/03/22 02:11:17;;;;;;;7.03;1.95;;;;;;;;;;5045319;28;20615;-57
2021/03/22 02:13:45;;;;;;;2.95;1.58;;;;;;;;;;5045188;28;20044;-57
2021/03/22 02:16:11;;;;;;;4.32;1.65;;;;;;;;;;5045564;28;20045;-58
2021/03/22 02:19:05;;;;;;;6.93;1.88;;;;;;;;;;5045390;28;20037;-58
2021/03/22 02:21:31;;;;;;;5.13;1.80;;;;;;;;;;5048001;28;20163;-58
2021/03/22 02:24:00;;;;;;;4.78;2.00;;;;;;;;;;5045956;28;20059;-58
2021/03/22 02:26:45;;;;;;;7.82;2.55;;;;;;;;;;5050031;28;20111;-57
2021/03/22 02:29:30;;;;;;;6.55;2.20;;;;;;;;;;5051775;28;20082;-56
2021/03/22 02:32:15;;;;;;;5.20;1.90;;;;;;;;;;5051390;28;20095;-58
2021/03/22 02:34:48;;;;;;;5.70;2.03;;;;;;;;;;5049926;28;20040;-57
2021/03/22 02:37:23;;;;;;;5.72;2.03;;;;;;;;;;5051378;28;20114;-58
2021/03/22 02:39:55;;;;;;;6.50;1.88;;;;;;;;;;5051688;28;20040;-58
2021/03/22 02:42:22;;;;;;;5.22;1.70;;;;;;;;;;5052798;28;20052;-57
2021/03/22 02:44:48;;;;;;;8.85;1.95;;;;;;;;;;5050308;28;20072;-57
2021/03/22 02:47:26;;;;;;;7.50;2.03;;;;;;;;;;5050802;28;20045;-58
2021/03/22 02:49:54;;;;;;;9.55;2.20;;;;;;;;;;5050370;28;20522;-58
2021/03/22 02:52:24;;;;;;;5.70;1.75;;;;;;;;;;5050444;28;20128;-58
2021/03/22 02:54:53;;;;;;;3.80;1.92;;;;;;;;;;5050091;28;20057;-58
2021/03/22 02:57:31;;;;;;;5.68;1.80;;;;;;;;;;5051317;28;20033;-55
2021/03/22 02:59:59;;;;;;;4.25;1.90;;;;;;;;;;5049816;28;20045;-58
2021/03/22 03:02:28;;;;;;;7.43;1.77;;;;;;;;;;5050490;28;20121;-58
2021/03/22 03:04:54;;;;;;;2.90;1.70;;;;;;;;;;5050625;28;20095;-56
2021/03/22 03:07:22;;;;;;;7.75;2.00;;;;;;;;;;5050753;28;20033;-57
2021/03/22 03:09:48;;;;;;;4.65;2.08;;;;;;;;;;5048769;28;20048;-57
2021/03/22 03:12:16;;;;;;;8.55;2.15;;;;;;;;;;5049698;28;20064;-58
2021/03/22 03:14:45;;;;;;;2.55;1.73;;;;;;;;;;5047754;28;20070;-58
2021/03/22 03:17:11;;;;;;;8.32;2.08;;;;;;;;;;5049159;28;20041;-56
2021/03/22 03:19:37;;;;;;;2.67;1.37;;;;;;;;;;5050207;28;20048;-58
2021/03/22 03:22:04;;;;;;;6.30;1.95;;;;;;;;;;5051043;28;20048;-58
2021/03/22 03:24:30;;;;;;;4.07;2.10;;;;;;;;;;5048593;28;20562;-57
2021/03/22 03:26:56;;;;;;;6.65;2.63;;;;;;;;;;5051110;28;20382;-57
2021/03/22 03:29:22;;;;;;;6.10;1.77;;;;;;;;;;5049999;28;20439;-58
2021/03/22 03:31:48;;;;;;;3.83;1.95;;;;;;;;;;5051100;28;20437;-58
2021/03/22 03:34:15;;;;;;;4.35;1.90;;;;;;;;;;5051259;28;20048;-58
2021/03/22 03:36:41;;;;;;;6.97;1.83;;;;;;;;;;5050146;28;20041;-58
2021/03/22 03:39:07;;;;;;;4.70;2.20;;;;;;;;;;5047696;28;20057;-57
2021/03/22 03:41:35;;;;;;;9.18;2.10;;;;;;;;;;5048838;28;20041;-58
2021/03/22 03:44:01;;;;;;;;;;;;;;;;;;5052549;28;20068;-57
2021/03/22 03:46:28;;;;;;;7.20;2.20;;;;;;;;;;5049619;28;20675;-58
2021/03/22 03:48:54;;;;;;;7.40;2.05;;;;;;;;;;5048090;28;20441;-58
2021/03/22 03:51:20;;;;;;;5.72;1.63;;;;;;;;;;5049830;28;20166;-57
2021/03/22 03:53:47;;;;;;;7.20;1.85;;;;;;;;;;5050810;28;20048;-58
2021/03/22 03:56:13;;;;;;;8.10;2.17;;;;;;;;;;5048177;28;20045;-58
2021/03/22 03:58:40;;;;;;;11.68;2.33;;;;;;;;;;5048729;28;20048;-58
2021/03/22 04:01:07;;;;;;;3.53;2.00;;;;;;;;;;5050026;28;20037;-56
2021/03/22 04:03:38;;;;;;;3.53;1.70;;;;;;;;;;5049781;28;20136;-58
2021/03/22 04:06:06;;;;;;;5.78;1.90;;;;;;;;;;5049091;28;20044;-58
2021/03/22 04:08:34;;;;;;;8.00;2.22;;;;;;;;;;5050471;28;20042;-56
2021/03/22 04:11:02;;;;;;;10.13;2.00;;;;;;;;;;5049009;28;20060;-57
2021/03/22 04:13:29;;;;;;;8.32;1.88;;;;;;;;;;5050813;28;20045;-56
2021/03/22 04:15:55;;;;;;;6.25;2.20;;;;;;;;;;5048662;28;20511;-57
2021/03/22 04:18:33;;;;;;;6.10;2.22;;;;;;;;;;5048773;28;20054;-58
2021/03/22 04:20:59;;;;;;;7.88;2.35;;;;;;;;;;5050560;28;20049;-57
2021/03/22 04:23:26;;;;;;;3.92;1.80;;;;;;;;;;5049359;28;20041;-58
2021/03/22 04:25:52;;;;;;;5.93;2.25;;;;;;;;;;5049703;28;20048;-58
2021/03/22 04:28:18;;;;;;;5.60;2.10;;;;;;;;;;5050209;28;20057;-58
2021/03/22 04:30:44;;;;;;;4.90;1.92;;;;;;;;;;5048777;28;20065;-58
2021/03/22 04:33:11;;;;;;;4.88;2.05;;;;;;;;;;5050473;28;20045;-58
2021/03/22 04:35:37;;;;;;;2.65;1.67;;;;;;;;;;5048769;28;20041;-56
2021/03/22 04:38:03;;;;;;;8.90;2.40;;;;;;;;;;5049210;28;20076;-57
2021/03/22 04:40:30;;;;;;;3.90;2.00;;;;;;;;;;5043444;28;20045;-58
2021/03/22 04:42:56;;;;;;;9.20;2.25;;;;;;;;;;5047555;28;20052;-58
2021/03/22 04:45:24;;;;;;;4.00;2.05;;;;;;;;;;5049755;28;20041;-58
2021/03/22 04:47:51;;;;;;;8.15;2.00;;;;;;;;;;5044747;28;20045;-57
2021/03/22 04:50:18;;;;;;;9.18;2.88;;;;;;;;;;5047588;28;20073;-57
2021/03/22 04:52:44;;;;;;;7.75;2.40;;;;;;;;;;5048609;28;20056;-58
2021/03/22 04:55:11;;;;;;;8.48;2.22;;;;;;;;;;5048041;28;20048;-58
2021/03/22 04:57:37;;;;;;;6.45;2.33;;;;;;;;;;5044710;28;20106;-58
2021/03/22 05:00:05;;;;;;;12.65;2.45;;;;;;;;;;5044689;28;20049;-58
2021/03/22 05:02:32;;;;;;;7.70;2.40;;;;;;;;;;5046738;28;20090;-58
2021/03/22 05:04:58;;;;;;;8.80;1.97;;;;;;;;;;5046495;28;20053;-57
2021/03/22 05:07:25;;;;;;;9.25;2.15;;;;;;;;;;5048083;28;20048;-57
2021/03/22 05:09:51;;;;;;;6.87;2.03;;;;;;;;;;5041877;28;20080;-57
2021/03/22 05:12:18;;;;;;;9.18;2.58;;;;;;;;;;5047227;28;20351;-58
2021/03/22 05:14:44;;;;;;;8.52;2.33;;;;;;;;;;5049733;28;20040;-58
2021/03/22 05:17:11;;;;;;;5.57;2.40;;;;;;;;;;5048360;28;20508;-57
2021/03/22 05:19:37;;;;;;;8.18;2.03;;;;;;;;;;5048307;28;20045;-58
2021/03/22 05:22:04;;;;;;;10.27;2.00;;;;;;;;;;5046644;28;20041;-57
2021/03/22 05:24:30;;;;;;;6.03;2.28;;;;;;;;;;5042612;28;20457;-58
2021/03/22 05:26:57;;;;;;;12.50;2.80;;;;;;;;;;5047624;28;20133;-58
2021/03/22 05:29:24;;;;;;;8.27;2.25;;;;;;;;;;5045540;28;20646;-58
2021/03/22 05:31:50;;;;;;;16.88;3.42;;;;;;;;;;5047147;28;20045;-58
2021/03/22 05:34:17;;;;;;;5.97;2.00;;;;;;;;;;5047463;28;20493;-57
2021/03/22 05:36:43;;;;;;;7.63;2.60;;;;;;;;;;5047357;28;20492;-58
2021/03/22 05:39:10;;;;;;;6.65;2.00;;;;;;;;;;5044430;28;20041;-57
2021/03/22 05:41:46;;;;;;;8.43;2.10;;;;;;;;;;5047016;28;20098;-58
2021/03/22 05:44:24;;;;;;;6.28;2.20;;;;;;;;;;5061496;28;20099;-57
2021/03/22 05:46:53;;;;;;;6.25;1.98;;;;;;;;;;5045694;28;20033;-57
2021/03/22 05:49:45;;;;;;;8.75;2.70;;;;;;;;;;5046603;28;20041;-58
2021/03/22 05:52:33;;;;;;;10.50;2.50;;;;;;;;;;5042082;28;20053;-57
2021/03/22 05:55:01;;;;;;;8.25;2.17;;;;;;;;;;5048198;28;20063;-58
2021/03/22 05:57:33;;;;;;;8.02;2.08;;;;;;;;;;5046680;28;20438;-58
2021/03/22 06:00:02;;;;;;;6.97;2.10;;;;;;;;;;5045262;28;20040;-58
2021/03/22 06:02:46;;;;;;;7.50;3.28;;;;;;;;;;5045435;28;20118;-58
2021/03/22 06:05:40;;;;;;;6.68;2.33;;;;;;;;;;5040919;28;20047;-55
2021/03/22 06:08:42;;;;;;;9.40;2.40;;;;;;;;;;5043232;28;20045;-54
2021/03/22 06:11:27;;;;;;;10.88;2.30;;;;;;;;;;4967523;28;20051;-55
2021/03/22 06:14:02;;;;;;;4.70;2.25;;;;;;;;;;5041570;28;20063;-58
2021/03/22 06:16:32;;;;;;;5.07;2.30;;;;;;;;;;5045463;28;20095;-56
2021/03/22 06:19:10;;;;;;;10.32;3.15;;;;;;;;;;5046318;28;20041;-57
2021/03/22 06:21:37;;;;;;;8.25;2.08;;;;;;;;;;5048273;28;20048;-58
2021/03/22 06:24:16;;;;;;;11.75;2.45;;;;;;;;;;5040575;28;20558;-58
2021/03/22 06:26:44;;;;;;;10.07;2.35;;;;;;;;;;5054595;28;20958;-58
2021/03/22 06:29:17;;;;;;;5.95;2.15;;;;;;;;;;5046901;28;20129;-57
2021/03/22 06:31:43;;;;;;;13.98;2.67;;;;;;;;;;5047078;28;20393;-58
2021/03/22 06:34:12;;;;;;;17.33;2.20;;;;;;;;;;5048496;28;20071;-57
2021/03/22 06:36:38;;;;;;;8.45;2.30;;;;;;;;;;5046730;28;20570;-58
2021/03/22 06:39:06;;;;;;;9.30;2.50;;;;;;;;;;5048028;28;20045;-58
2021/03/22 06:41:36;;;;;;;9.23;2.85;;;;;;;;;;5047368;28;20041;-58
2021/03/22 06:44:04;;;;;;;7.22;2.47;;;;;;;;;;5046277;28;20090;-58
2021/03/22 06:46:30;;;;;;;9.25;2.50;;;;;;;;;;5046565;28;20045;-58
2021/03/22 06:49:20;;;;;;;9.32;2.15;;;;;;;;;;5047296;28;20049;-57
2021/03/22 06:52:00;;;;;;;9.60;2.50;;;;;;;;;;5048790;28;20516;-58
2021/03/22 06:54:29;;;;;;;15.98;3.45;;;;;;;;;;5048603;28;20052;-57
2021/03/22 06:57:04;;;;;;;8.68;2.15;;;;;;;;;;5048276;28;20072;-57
2021/03/22 06:59:31;;;;;;;6.90;2.40;;;;;;;;;;5046144;28;20126;-56
2021/03/22 07:02:09;;;;;;;8.43;2.22;;;;;;;;;;5046236;28;20349;-56
2021/03/22 07:04:38;;;;;;;7.90;2.25;;;;;;;;;;5046241;28;20052;-57
2021/03/22 07:07:04;;;;;;;12.23;2.42;;;;;;;;;;5048035;28;20048;-58
2021/03/22 07:09:30;;;;;;;7.53;2.35;;;;;;;;;;5046549;28;20424;-58
2021/03/22 07:11:57;;;;;;;11.15;3.10;;;;;;;;;;5051174;28;20599;-57
2021/03/22 07:14:24;;;;;;;11.40;2.03;;;;;;;;;;5051167;28;20045;-58
2021/03/22 07:17:08;;;;;;;7.47;2.30;;;;;;;;;;5050769;28;20044;-58
2021/03/22 07:19:34;;;;;;;5.85;2.28;;;;;;;;;;5049358;28;20045;-58
2021/03/22 07:22:03;;;;;;;5.88;2.00;;;;;;;;;;5050257;28;20045;-58
2021/03/22 07:24:29;;;;;;;13.35;2.70;;;;;;;;;;5049342;28;20049;-57
2021/03/22 07:26:55;;;;;;;9.50;3.75;;;;;;;;;;5051621;28;20045;-58
2021/03/22 07:29:31;;;;;;;9.02;2.22;;;;;;;;;;5049682;28;20090;-58
2021/03/22 07:32:07;;;;;;;8.52;2.67;;;;;;;;;;5051855;28;20037;-58
2021/03/22 07:34:55;;;;;;;7.43;2.20;;;;;;;;;;5050638;28;20118;-58
2021/03/22 07:37:44;;;;;;;8.30;2.15;;;;;;;;;;5050334;28;20068;-57
2021/03/22 07:40:39;;;;;;;11.40;2.60;;;;;;;;;;5047053;28;20048;-58
2021/03/22 07:43:12;;;;;;;10.73;2.83;;;;;;;;;;5051659;28;20041;-58
2021/03/22 07:45:58;;;;;;;12.45;3.67;;;;;;;;;;5050797;28;20048;-57
2021/03/22 07:48:39;;;;;;;10.02;2.95;;;;;;;;;;5028188;28;20053;-58
2021/03/22 07:51:25;;;;;;;7.88;2.60;;;;;;;;;;5050958;28;20087;-57
2021/03/22 07:54:08;;;;;;;13.55;2.67;;;;;;;;;;5050847;28;20124;-57
2021/03/22 07:56:41;;;;;;;7.22;2.20;;;;;;;;;;5052438;28;20033;-58
2021/03/22 07:59:31;;;;;;;10.82;2.25;;;;;;;;;;5050334;28;20049;-58
2021/03/22 08:02:07;;;;;;;7.63;2.28;;;;;;;;;;5057312;28;20048;-58
2021/03/22 08:04:52;;;;;;;11.27;2.60;;;;;;;;;;5048176;28;20037;-58
2021/03/22 08:07:28;;;;;;;8.75;2.35;;;;;;;;;;5047867;28;20056;-58
2021/03/22 08:09:57;;;;;;;8.65;2.53;;;;;;;;;;5050695;28;20879;-58
2021/03/22 08:12:36;;;;;;;7.60;2.10;;;;;;;;;;5051120;28;20041;-58
2021/03/22 08:15:15;;;;;;;7.25;2.25;;;;;;;;;;5050221;28;20072;-58
2021/03/22 08:18:04;;;;;;;9.05;2.40;;;;;;;;;;5050581;28;20045;-59
2021/03/22 08:20:32;;;;;;;4.60;1.75;;;;;;;;;;5050700;28;20061;-58
2021/03/22 08:23:02;;;;;;;8.23;2.83;;;;;;;;;;5046839;28;20037;-58
2021/03/22 08:25:28;;;;;;;10.25;2.60;;;;;;;;;;5048893;28;20057;-58
2021/03/22 08:28:04;;;;;;;9.63;2.45;;;;;;;;;;5048146;28;20306;-58
2021/03/22 08:30:35;;;;;;;6.75;2.20;;;;;;;;;;5049355;28;20094;-58
2021/03/22 08:33:19;;;;;;;3.22;1.77;;;;;;;;;;5052308;28;20039;-58
2021/03/22 08:35:52;;;;;;;9.02;2.20;;;;;;;;;;5048795;28;20072;-58
2021/03/22 08:38:28;;;;;;;14.88;2.92;;;;;;;;;;5049972;28;20045;-59
2021/03/22 08:40:56;;;;;;;9.10;2.17;;;;;;;;;;5047669;28;20084;-58
2021/03/22 08:43:27;;;;;;;9.23;2.33;;;;;;;;;;5048814;28;20622;-58
2021/03/22 08:46:07;;;;;;;7.72;1.83;;;;;;;;;;5048437;28;20053;-59
2021/03/22 08:48:34;;;;;;;9.98;2.20;;;;;;;;;;5048175;28;20114;-58
2021/03/22 08:51:03;;;;;;;7.13;2.90;;;;;;;;;;5047938;28;20099;-58
2021/03/22 08:53:35;;;;;;;6.63;1.92;;;;;;;;;;5049324;28;20045;-59
2021/03/22 08:56:04;;;;;;;9.82;2.47;;;;;;;;;;5049828;28;20090;-59
2021/03/22 08:58:44;;;;;;;5.30;2.05;;;;;;;;;;5048981;28;20080;-59
2021/03/22 09:01:23;;;;;;;4.85;2.00;;;;;;;;;;5048173;28;20048;-58
2021/03/22 09:03:51;;;;;;;11.73;2.72;;;;;;;;;;5047706;28;20053;-59
2021/03/22 09:06:26;;;;;;;6.70;2.10;;;;;;;;;;5048828;28;20033;-59
2021/03/22 09:08:54;;;;;;;8.00;2.03;;;;;;;;;;5048106;28;20045;-58
2021/03/22 09:11:20;;;;;;;7.10;2.15;;;;;;;;;;5047701;28;20079;-58
2021/03/22 09:13:53;;;;;;;4.05;1.95;;;;;;;;;;5048978;28;20041;-58
2021/03/22 09:16:23;;;;;;;3.63;1.90;;;;;;;;;;5049999;28;20053;-59
2021/03/22 09:19:12;;;;;;;6.88;2.03;;;;;;;;;;5048925;28;20048;-59
2021/03/22 09:21:43;;;;;;;8.95;2.38;;;;;;;;;;5046907;28;20048;-59
2021/03/22 09:24:28;;;;;;;3.67;1.63;;;;;;;;;;5046439;28;20049;-58
2021/03/22 09:26:59;;;;;;;5.85;1.77;;;;;;;;;;5047656;28;20508;-59
2021/03/22 09:29:37;;;;;;;4.63;2.13;;;;;;;;;;5047802;28;20067;-59
2021/03/22 09:32:29;;;;;;;5.65;1.80;;;;;;;;;;5047970;28;20047;-58
2021/03/22 09:34:58;;;;;;;4.63;1.67;;;;;;;;;;5047673;28;20974;-59
2021/03/22 09:37:47;;;;;;;5.43;2.00;;;;;;;;;;5047529;28;20051;-59
2021/03/22 09:40:20;;;;;;;4.57;2.08;;;;;;;;;;5048210;28;20044;-59
2021/03/22 09:43:06;;;;;;;6.68;1.80;;;;;;;;;;5048818;28;20439;-59
2021/03/22 09:45:51;;;;;;;5.65;1.70;;;;;;;;;;5049913;28;20056;-59
2021/03/22 09:48:19;;;;;;;4.95;1.52;;;;;;;;;;5048336;28;20037;-59
2021/03/22 09:50:46;;;;;;;5.95;1.77;;;;;;;;;;5047196;28;20115;-59
2021/03/22 09:53:12;;;;;;;6.10;1.38;;;;;;;;;;5047851;28;20029;-59
2021/03/22 09:55:44;;;;;;;4.82;1.60;;;;;;;;;;5047713;28;20049;-58
2021/03/22 09:58:26;;;;;;;7.13;1.50;;;;;;;;;;5047707;28;20077;-58
2021/03/22 10:00:57;;;;;;;3.03;1.08;;;;;;;;;;5049018;28;20052;-59
2021/03/22 10:03:32;;;;;;;8.68;1.50;;;;;;;;;;5048929;28;20045;-58
2021/03/22 10:06:00;;;;;;;3.53;1.15;;;;;;;;;;5047198;28;20048;-59
2021/03/22 10:08:34;;;;;;;4.30;1.10;;;;;;;;;;5048722;28;20358;-59
2021/03/22 10:11:06;;;;;;;3.47;1.20;;;;;;;;;;5045426;28;20041;-58
2021/03/22 10:13:52;;;;;;;2.33;1.17;;;;;;;;;;5048273;28;20098;-58
2021/03/22 10:16:24;;;;;;;4.70;1.20;;;;;;;;;;5048142;28;20044;-58
2021/03/22 10:18:54;;;;;;;3.58;1.00;;;;;;;;;;5048767;28;20041;-59
2021/03/22 10:21:25;;;;;;;2.45;1.25;;;;;;;;;;5048368;28;20056;-59
2021/03/22 10:23:54;;;;;;;1.50;1.20;;;;;;;;;;5045297;28;20045;-59
2021/03/22 10:26:23;;;;;;;1.65;0.85;;;;;;;;;;5048927;28;20061;-59
2021/03/22 10:28:50;;;;;;;3.17;1.35;;;;;;;;;;5047949;28;20076;-59
2021/03/22 10:31:19;;;;;;;2.13;1.40;;;;;;;;;;5048756;28;20052;-59
2021/03/22 10:33:57;;;;;;;4.05;1.45;;;;;;;;;;5047377;28;20291;-59
2021/03/22 10:36:26;;;;;;;3.08;1.17;;;;;;;;;;5049396;28;20038;-59
2021/03/22 10:38:54;;;;;;;3.00;1.10;;;;;;;;;;5049195;28;20087;-58
2021/03/22 10:41:39;;;;;;;2.90;1.20;;;;;;;;;;5049083;28;20060;-59
2021/03/22 10:44:15;;;;;;;2.83;1.10;;;;;;;;;;5050317;28;20056;-59
2021/03/22 10:46:42;;;;;;;2.78;1.20;;;;;;;;;;5053011;28;20039;-59
2021/03/22 10:49:11;;;;;;;5.82;0.80;;;;;;;;;;5054860;28;20457;-59
2021/03/22 10:51:41;;;;;;;3.60;1.25;;;;;;;;;;5053409;28;20072;-59
2021/03/22 10:54:10;;;;;;;3.47;1.00;;;;;;;;;;5052559;28;20110;-59
2021/03/22 10:56:57;;;;;;;3.28;1.10;;;;;;;;;;5053623;28;20126;-58
2021/03/22 10:59:23;;;;;;;4.57;1.00;;;;;;;;;;5052509;28;20080;-60
2021/03/22 11:01:51;;;;;;;3.13;1.10;;;;;;;;;;5052956;28;20489;-58
2021/03/22 11:04:20;;;;;;;2.92;1.27;;;;;;;;;;5054123;28;20124;-59
2021/03/22 11:06:48;;;;;;;1.30;0.80;;;;;;;;;;5054123;28;20045;-59
2021/03/22 11:09:20;;;;;;;2.60;1.23;;;;;;;;;;5052658;28;20104;-59
2021/03/22 11:11:46;;;;;;;2.20;0.90;;;;;;;;;;5052658;28;20072;-59
2021/03/22 11:14:15;;;;;;;1.23;0.63;;;;;;;;;;5050295;28;20056;-59
2021/03/22 11:16:43;;;;;;;1.90;1.17;;;;;;;;;;5050393;28;20709;-59
2021/03/22 11:19:24;;;;;;;3.28;0.95;;;;;;;;;;5048986;28;20052;-59
2021/03/22 11:21:52;;;;;;;2.17;1.10;;;;;;;;;;5052341;28;20055;-59
2021/03/22 11:24:31;;;;;;;6.85;1.27;;;;;;;;;;5048069;28;20060;-59
2021/03/22 11:26:59;;;;;;;2.10;0.75;;;;;;;;;;5052315;28;20048;-59
2021/03/22 11:29:26;;;;;;;2.40;0.98;;;;;;;;;;5052005;28;20492;-59
2021/03/22 11:32:00;;;;;;;3.28;0.77;;;;;;;;;;5051921;28;20447;-59
2021/03/22 11:34:32;;;;;;;2.63;1.10;;;;;;;;;;5050886;28;20069;-59
2021/03/22 11:37:17;;;;;;;3.20;1.00;;;;;;;;;;5050906;28;20041;-59
2021/03/22 11:39:44;;;;;;;1.58;0.90;;;;;;;;;;5049430;28;20040;-59
2021/03/22 11:42:19;;;;;;;2.15;0.88;;;;;;;;;;5049571;28;20123;-59
2021/03/22 11:44:45;;;;;;;3.22;1.00;;;;;;;;;;5050706;28;20415;-59
2021/03/22 11:47:23;;;;;;;1.45;0.93;;;;;;;;;;5049540;28;20136;-59
2021/03/22 11:49:51;;;;;;;2.40;0.73;;;;;;;;;;5050420;28;20072;-59
2021/03/22 11:52:22;;;;;;;1.17;0.75;;;;;;;;;;5048468;28;20115;-59
2021/03/22 11:54:51;;;;;;;4.40;0.90;;;;;;;;;;5050586;28;20048;-59
2021/03/22 11:57:19;;;;;;;1.92;1.25;;;;;;;;;;5048194;28;20045;-59
2021/03/22 11:59:47;;;;;;;3.08;1.10;;;;;;;;;;5051157;28;20090;-59
2021/03/22 12:02:13;;;;;;;5.07;0.90;;;;;;;;;;5050681;28;20049;-60
2021/03/22 12:04:49;;;;;;;0.75;0.75;;;;;;;;;;5049214;28;20051;-59
2021/03/22 12:07:31;;;;;;;1.60;0.80;;;;;;;;;;5050212;28;20400;-59
2021/03/22 12:10:01;;;;;;;1.38;0.63;;;;;;;;;;5050059;28;20044;-59
2021/03/22 12:12:27;;;;;;;3.75;0.70;;;;;;;;;;5050727;28;20044;-59
2021/03/22 12:14:53;;;;;;;2.60;1.00;;;;;;;;;;5051160;28;20060;-59
2021/03/22 12:17:27;;;;;;;1.05;0.88;;;;;;;;;;5049129;28;20657;-59
2021/03/22 12:19:54;;;;;;;2.72;0.90;;;;;;;;;;5049743;28;20049;-59
2021/03/22 12:22:21;;;;;;;1.23;0.77;;;;;;;;;;5051090;28;20096;-60
2021/03/22 12:24:47;;;;;;;1.50;0.70;;;;;;;;;;5046660;28;20044;-59
2021/03/22 12:27:15;;;;;;;1.23;0.70;;;;;;;;;;5050098;28;20057;-59
2021/03/22 12:29:41;;;;;;;;;;;;;;;;;;5050269;28;20062;-59
2021/03/22 12:32:12;;;;;;;1.25;0.70;;;;;;;;;;5047120;28;19947;-59
2021/03/22 12:34:39;;;;;;;1.27;0.63;;;;;;;;;;5050705;28;20040;-59
2021/03/22 12:37:05;;;;;;;1.10;0.63;;;;;;;;;;5049613;28;20136;-59
2021/03/22 12:39:36;;;;;;;1.95;0.52;;;;;;;;;;5049457;28;20045;-59
2021/03/22 12:42:05;;;;;;;0.85;0.70;;;;;;;;;;5046324;28;20496;-59
2021/03/22 12:44:33;;;;;;;4.88;0.98;;;;;;;;;;5048577;28;20489;-59
2021/03/22 12:46:59;;;;;;;4.72;0.82;;;;;;;;;;5049708;28;20044;-59
2021/03/22 12:49:26;;;;;;;3.25;0.70;;;;;;;;;;5049885;28;20041;-59
2021/03/22 12:51:52;;;;;;;0.88;0.77;;;;;;;;;;5049309;28;20124;-59
2021/03/22 12:54:19;;;;;;;3.63;0.73;;;;;;;;;;5049160;28;20045;-59
2021/03/22 12:56:45;;;;;;;1.05;0.68;;;;;;;;;;5046492;28;20053;-59
2021/03/22 12:59:35;;;;;;;1.42;0.60;;;;;;;;;;5049218;28;20037;-59
2021/03/22 13:02:03;;;;;;;2.17;0.85;;;;;;;;;;5048230;28;20041;-59
2021/03/22 13:04:30;;;;;;;3.50;1.02;;;;;;;;;;5050119;28;20408;-59
2021/03/22 13:06:57;;;;;;;3.78;0.90;;;;;;;;;;5049297;28;20064;-59
2021/03/22 13:09:24;;;;;;;2.40;0.82;;;;;;;;;;5045942;28;20668;-59
2021/03/22 13:11:50;;;;;;;4.32;1.13;;;;;;;;;;5047692;28;20060;-59
2021/03/22 13:14:17;;;;;;;3.38;1.13;;;;;;;;;;5050346;28;20507;-59
2021/03/22 13:16:44;;;;;;;2.42;0.70;;;;;;;;;;5048793;28;20053;-59
2021/03/22 13:19:11;;;;;;;1.80;0.77;;;;;;;;;;5048360;28;20045;-59
2021/03/22 13:21:38;;;;;;;1.60;0.88;;;;;;;;;;5049003;28;20134;-59
2021/03/22 13:24:04;;;;;;;3.08;1.27;;;;;;;;;;5047969;28;20527;-59
2021/03/22 13:26:31;;;;;;;2.03;0.70;;;;;;;;;;5047420;28;20055;-59
2021/03/22 13:28:57;;;;;;;10.35;1.25;;;;;;;;;;5048078;28;20158;-59
2021/03/22 13:31:24;;;;;;;2.78;0.73;;;;;;;;;;5049741;28;20076;-59
2021/03/22 13:33:52;;;;;;;8.63;1.48;;;;;;;;;;5047216;28;20039;-59
2021/03/22 13:36:20;;;;;;;1.83;0.70;;;;;;;;;;5047603;28;20439;-59
2021/03/22 13:38:46;;;;;;;3.45;0.73;;;;;;;;;;5049027;28;20041;-59
2021/03/22 13:41:20;;;;;;;3.38;0.65;;;;;;;;;;5049076;28;20111;-59
2021/03/22 13:43:46;;;;;;;2.42;0.70;;;;;;;;;;5048468;28;20048;-59
2021/03/22 13:46:12;;;;;;;2.83;0.90;;;;;;;;;;5048312;28;20566;-59
2021/03/22 13:48:38;;;;;;;1.40;0.60;;;;;;;;;;5048154;28;20451;-59
2021/03/22 13:51:05;;;;;;;2.35;0.88;;;;;;;;;;5045708;28;20131;-59
2021/03/22 13:53:33;;;;;;;1.23;0.80;;;;;;;;;;5048290;28;20037;-59
2021/03/22 13:55:59;;;;;;;2.40;0.80;;;;;;;;;;5047676;28;20048;-59
2021/03/22 13:58:27;;;;;;;5.13;0.90;;;;;;;;;;5048044;28;20095;-59
2021/03/22 14:00:54;;;;;;;2.28;0.93;;;;;;;;;;5046252;28;20037;-59
2021/03/22 14:03:24;;;;;;;1.23;0.60;;;;;;;;;;5049142;28;20033;-59
2021/03/22 14:05:51;;;;;;;1.90;0.60;;;;;;;;;;5045820;28;20049;-59
2021/03/22 14:08:18;;;;;;;1.55;0.60;;;;;;;;;;5048199;28;20068;-59
2021/03/22 14:10:44;;;;;;;1.10;0.60;;;;;;;;;;5048551;28;20095;-59
2021/03/22 14:13:11;;;;;;;2.20;0.95;;;;;;;;;;5047043;28;20131;-59
2021/03/22 14:15:39;;;;;;;1.40;0.75;;;;;;;;;;5047028;28;20044;-59
2021/03/22 14:18:07;;;;;;;1.27;0.60;;;;;;;;;;5047883;28;20076;-59
2021/03/22 14:20:34;;;;;;;3.95;0.82;;;;;;;;;;5048495;28;20059;-59
2021/03/22 14:23:00;;;;;;;0.82;0.40;;;;;;;;;;5051563;28;20041;-59
2021/03/22 14:25:27;;;;;;;2.15;1.00;;;;;;;;;;5051720;28;20045;-59
2021/03/22 14:27:53;;;;;;;4.88;0.50;;;;;;;;;;5052773;28;20757;-59
2021/03/22 14:30:24;;;;;;;1.08;0.45;;;;;;;;;;5051677;28;20110;-59
2021/03/22 14:32:51;;;;;;;2.63;0.40;;;;;;;;;;5051449;28;20036;-59
2021/03/22 14:35:18;;;;;;;1.07;0.60;;;;;;;;;;5050069;28;20072;-59
2021/03/22 14:37:44;;;;;;;2.80;0.70;;;;;;;;;;5052820;28;20279;-59
2021/03/22 14:40:11;;;;;;;0.88;0.57;;;;;;;;;;5050758;28;20041;-59
2021/03/22 14:42:38;;;;;;;1.23;0.40;;;;;;;;;;5052098;28;20167;-59
2021/03/22 14:45:05;;;;;;;0.68;0.43;;;;;;;;;;5052084;28;20051;-59
2021/03/22 14:47:32;;;;;;;1.60;0.50;;;;;;;;;;5051822;28;20051;-59
2021/03/22 14:49:58;;;;;;;3.95;0.52;;;;;;;;;;5052370;28;20066;-59
2021/03/22 14:52:25;;;;;;;1.15;0.55;;;;;;;;;;5052582;28;20071;-59
2021/03/22 14:54:51;;;;;;;2.20;0.60;;;;;;;;;;5052937;28;20045;-59
2021/03/22 14:57:19;;;;;;;0.40;0.30;;;;;;;;;;5050398;28;20546;-59
2021/03/22 14:59:47;;;;;;;1.23;0.55;;;;;;;;;;5051108;28;20516;-58
2021/03/22 15:02:13;;;;;;;0.73;0.40;;;;;;;;;;5051198;28;20040;-59